createdAt,value
2023-01-10T00:00:04.798Z,6.20
2023-01-10T00:00:36.253Z,5.53
2023-01-10T00:01:08.668Z,6.70
2023-01-10T00:01:40.306Z,5.53
2023-01-10T00:02:11.792Z,5.43
2023-01-10T00:02:43.311Z,5.95
2023-01-10T00:03:14.825Z,5.72
2023-01-10T00:03:46.210Z,5.15
2023-01-10T00:04:17.685Z,6.00
2023-01-10T00:04:49.195Z,5.90
2023-01-10T00:05:20.597Z,5.78
2023-01-10T00:05:52.049Z,5.68
2023-01-10T00:06:23.551Z,6.03
2023-01-10T00:06:54.984Z,6.07
2023-01-10T00:07:26.408Z,5.95
2023-01-10T00:07:57.847Z,5.68
2023-01-10T00:08:29.279Z,5.90
2023-01-10T00:09:00.698Z,5.90
2023-01-10T00:09:32.095Z,7.00
2023-01-10T00:10:03.696Z,5.85
2023-01-10T00:10:35.297Z,5.32
2023-01-10T00:11:06.730Z,6.05
2023-01-10T00:11:38.173Z,5.10
2023-01-10T00:12:09.612Z,5.53
2023-01-10T00:12:41.195Z,5.65
2023-01-10T00:13:15.931Z,5.45
2023-01-10T00:13:47.408Z,5.32
2023-01-10T00:14:18.883Z,5.88
2023-01-10T00:14:50.301Z,5.63
2023-01-10T00:15:21.827Z,5.00
2023-01-10T00:15:54.601Z,5.43
2023-01-10T00:16:26.071Z,4.97
2023-01-10T00:16:57.564Z,5.47
2023-01-10T00:17:29.009Z,5.55
2023-01-10T00:18:00.434Z,5.20
2023-01-10T00:18:31.891Z,4.90
2023-01-10T00:19:03.309Z,5.03
2023-01-10T00:19:34.731Z,5.25
2023-01-10T00:20:06.431Z,6.10
2023-01-10T00:20:37.840Z,5.88
2023-01-10T00:21:09.226Z,5.32
2023-01-10T00:21:40.705Z,5.05
2023-01-10T00:22:12.207Z,5.15
2023-01-10T00:22:43.624Z,5.68
2023-01-10T00:23:15.231Z,5.10
2023-01-10T00:23:46.669Z,4.93
2023-01-10T00:24:18.103Z,4.60
2023-01-10T00:24:49.523Z,5.82
2023-01-10T00:25:21.220Z,5.50
2023-01-10T00:25:52.595Z,5.68
2023-01-10T00:26:23.940Z,5.22
2023-01-10T00:26:55.390Z,4.95
2023-01-10T00:27:26.787Z,5.30
2023-01-10T00:27:58.203Z,5.13
2023-01-10T00:28:29.601Z,5.22
2023-01-10T00:29:01.081Z,4.65
2023-01-10T00:29:32.453Z,5.60
2023-01-10T00:30:04.681Z,5.88
2023-01-10T00:30:39.548Z,5.20
2023-01-10T00:31:11.000Z,5.65
2023-01-10T00:31:42.410Z,5.20
2023-01-10T00:32:13.847Z,5.30
2023-01-10T00:32:45.846Z,4.70
2023-01-10T00:33:17.292Z,4.72
2023-01-10T00:33:48.685Z,4.78
2023-01-10T00:34:20.167Z,5.05
2023-01-10T00:34:51.599Z,5.15
2023-01-10T00:35:23.140Z,4.75
2023-01-10T00:35:54.528Z,5.30
2023-01-10T00:36:26.013Z,4.95
2023-01-10T00:36:57.506Z,4.65
2023-01-10T00:37:28.999Z,5.28
2023-01-10T00:38:00.479Z,4.97
2023-01-10T00:38:32.272Z,5.55
2023-01-10T00:39:03.711Z,4.80
2023-01-10T00:39:35.100Z,5.35
2023-01-10T00:40:07.507Z,4.55
2023-01-10T00:40:39.669Z,5.68
2023-01-10T00:41:11.105Z,5.28
2023-01-10T00:41:42.556Z,4.68
2023-01-10T00:42:13.973Z,5.25
2023-01-10T00:42:45.298Z,5.82
2023-01-10T00:43:16.753Z,4.28
2023-01-10T00:43:48.156Z,5.55
2023-01-10T00:44:19.532Z,4.35
2023-01-10T00:44:50.957Z,5.28
2023-01-10T00:45:22.448Z,4.68
2023-01-10T00:45:53.908Z,4.72
2023-01-10T00:46:25.972Z,4.75
2023-01-10T00:46:57.530Z,5.57
2023-01-10T00:47:28.961Z,5.88
2023-01-10T00:48:00.353Z,5.22
2023-01-10T00:48:31.785Z,5.72
2023-01-10T00:49:03.183Z,5.32
2023-01-10T00:49:34.540Z,4.87
2023-01-10T00:50:06.247Z,5.53
2023-01-10T00:50:37.635Z,5.88
2023-01-10T00:51:09.006Z,5.20
2023-01-10T00:51:40.414Z,4.90
2023-01-10T00:52:11.798Z,5.18
2023-01-10T00:52:43.191Z,5.78
2023-01-10T00:53:14.682Z,4.50
2023-01-10T00:53:46.216Z,5.40
2023-01-10T00:54:17.605Z,4.35
2023-01-10T00:54:49.042Z,4.95
2023-01-10T00:55:20.474Z,5.05
2023-01-10T00:55:53.188Z,4.72
2023-01-10T00:56:24.620Z,5.13
2023-01-10T00:56:56.012Z,5.00
2023-01-10T00:57:27.399Z,5.05
2023-01-10T00:57:58.843Z,5.45
2023-01-10T00:58:30.279Z,4.93
2023-01-10T00:59:01.664Z,5.00
2023-01-10T00:59:33.095Z,5.05
2023-01-10T01:00:05.143Z,5.68
2023-01-10T01:00:36.537Z,5.47
2023-01-10T01:01:08.074Z,5.05
2023-01-10T01:01:39.630Z,4.65
2023-01-10T01:02:11.149Z,4.20
2023-01-10T01:02:42.609Z,5.00
2023-01-10T01:03:14.092Z,4.78
2023-01-10T01:03:45.468Z,5.47
2023-01-10T01:04:17.213Z,5.13
2023-01-10T01:04:48.592Z,4.60
2023-01-10T01:05:20.323Z,5.10
2023-01-10T01:05:51.723Z,5.47
2023-01-10T01:06:23.156Z,4.95
2023-01-10T01:06:54.550Z,3.95
2023-01-10T01:07:25.975Z,4.82
2023-01-10T01:07:57.372Z,5.28
2023-01-10T01:08:28.756Z,4.40
2023-01-10T01:09:00.143Z,5.20
2023-01-10T01:09:31.645Z,4.80
2023-01-10T01:10:03.184Z,5.55
2023-01-10T01:10:34.665Z,5.50
2023-01-10T01:11:06.104Z,5.68
2023-01-10T01:11:37.533Z,4.25
2023-01-10T01:12:08.904Z,5.70
2023-01-10T01:12:40.376Z,5.43
2023-01-10T01:13:17.019Z,4.78
2023-01-10T01:13:48.382Z,4.35
2023-01-10T01:14:19.842Z,4.85
2023-01-10T01:14:51.324Z,4.95
2023-01-10T01:15:23.031Z,4.85
2023-01-10T01:15:57.547Z,4.78
2023-01-10T01:16:29.016Z,4.85
2023-01-10T01:17:00.429Z,4.68
2023-01-10T01:17:31.904Z,4.67
2023-01-10T01:18:03.719Z,4.60
2023-01-10T01:18:35.221Z,5.05
2023-01-10T01:19:06.633Z,4.30
2023-01-10T01:19:38.103Z,4.60
2023-01-10T01:20:09.849Z,5.18
2023-01-10T01:20:41.955Z,5.47
2023-01-10T01:21:13.400Z,4.57
2023-01-10T01:21:44.886Z,5.22
2023-01-10T01:22:16.306Z,5.10
2023-01-10T01:22:47.756Z,4.43
2023-01-10T01:23:19.135Z,4.53
2023-01-10T01:23:50.523Z,4.43
2023-01-10T01:24:21.916Z,5.00
2023-01-10T01:24:53.291Z,5.60
2023-01-10T01:25:24.868Z,4.78
2023-01-10T01:25:56.954Z,5.13
2023-01-10T01:26:28.373Z,5.00
2023-01-10T01:26:59.758Z,4.10
2023-01-10T01:27:31.282Z,4.75
2023-01-10T01:28:02.751Z,4.78
2023-01-10T01:28:34.127Z,5.22
2023-01-10T01:29:05.572Z,4.80
2023-01-10T01:29:42.927Z,4.93
2023-01-10T01:30:15.189Z,4.65
2023-01-10T01:30:46.589Z,4.95
2023-01-10T01:31:18.251Z,4.90
2023-01-10T01:31:49.793Z,4.13
2023-01-10T01:32:21.271Z,4.32
2023-01-10T01:32:52.843Z,5.30
2023-01-10T01:33:24.284Z,4.57
2023-01-10T01:33:55.650Z,4.85
2023-01-10T01:34:27.065Z,5.07
2023-01-10T01:34:58.452Z,4.80
2023-01-10T01:35:29.829Z,5.00
2023-01-10T01:36:01.307Z,4.88
2023-01-10T01:36:32.695Z,4.65
2023-01-10T01:37:04.156Z,5.43
2023-01-10T01:37:35.570Z,5.50
2023-01-10T01:38:06.974Z,4.72
2023-01-10T01:38:38.763Z,4.32
2023-01-10T01:39:10.159Z,4.57
2023-01-10T01:39:41.847Z,5.00
2023-01-10T01:40:20.909Z,4.75
2023-01-10T01:40:52.397Z,4.65
2023-01-10T01:41:23.895Z,4.82
2023-01-10T01:41:55.274Z,3.88
2023-01-10T01:42:31.678Z,4.50
2023-01-10T01:43:03.109Z,4.47
2023-01-10T01:43:54.510Z,4.78
2023-01-10T01:44:36.206Z,3.80
2023-01-10T01:45:07.676Z,4.65
2023-01-10T01:45:39.520Z,4.70
2023-01-10T01:46:10.906Z,4.65
2023-01-10T01:46:43.221Z,4.97
2023-01-10T01:47:22.964Z,5.00
2023-01-10T01:47:57.254Z,5.03
2023-01-10T01:48:31.399Z,4.38
2023-01-10T01:49:04.175Z,4.72
2023-01-10T01:49:38.561Z,4.70
2023-01-10T01:50:24.661Z,5.53
2023-01-10T01:51:01.373Z,5.22
2023-01-10T01:51:32.949Z,4.82
2023-01-10T01:52:07.629Z,4.43
2023-01-10T01:52:39.219Z,3.90
2023-01-10T01:53:16.197Z,4.55
2023-01-10T01:53:52.800Z,4.68
2023-01-10T01:54:24.222Z,4.63
2023-01-10T01:54:58.071Z,5.07
2023-01-10T01:55:30.919Z,4.43
2023-01-10T01:56:25.355Z,3.90
2023-01-10T01:57:02.506Z,4.53
2023-01-10T01:57:34.452Z,4.43
2023-01-10T01:58:07.679Z,4.70
2023-01-10T01:58:46.077Z,4.60
2023-01-10T01:59:23.057Z,4.18
2023-01-10T01:59:55.463Z,4.30
2023-01-10T02:00:26.883Z,4.88
2023-01-10T02:00:58.352Z,3.97
2023-01-10T02:01:30.946Z,3.83
2023-01-10T02:02:04.446Z,4.75
2023-01-10T02:02:38.065Z,4.55
2023-01-10T02:03:09.805Z,4.85
2023-01-10T02:03:42.974Z,5.53
2023-01-10T02:04:20.633Z,5.03
2023-01-10T02:04:52.135Z,4.40
2023-01-10T02:05:24.160Z,4.43
2023-01-10T02:05:55.799Z,4.63
2023-01-10T02:06:27.286Z,4.15
2023-01-10T02:06:59.295Z,4.70
2023-01-10T02:07:33.646Z,5.07
2023-01-10T02:08:05.247Z,4.90
2023-01-10T02:08:38.357Z,4.13
2023-01-10T02:09:28.454Z,4.63
2023-01-10T02:10:20.162Z,4.53
2023-01-10T02:10:54.682Z,4.65
2023-01-10T02:11:26.104Z,4.28
2023-01-10T02:11:57.547Z,4.32
2023-01-10T02:12:30.097Z,4.07
2023-01-10T02:13:04.092Z,4.82
2023-01-10T02:13:38.141Z,4.40
2023-01-10T02:14:10.445Z,4.10
2023-01-10T02:14:43.030Z,4.63
2023-01-10T02:15:16.242Z,4.78
2023-01-10T02:15:47.764Z,4.53
2023-01-10T02:16:19.321Z,4.30
2023-01-10T02:16:50.780Z,4.32
2023-01-10T02:17:22.204Z,3.88
2023-01-10T02:17:53.750Z,5.15
2023-01-10T02:18:25.183Z,5.55
2023-01-10T02:18:56.918Z,4.70
2023-01-10T02:19:28.366Z,4.47
2023-01-10T02:20:07.271Z,4.35
2023-01-10T02:20:58.942Z,4.13
2023-01-10T02:21:40.206Z,4.30
2023-01-10T02:22:30.132Z,3.92
2023-01-10T02:23:10.584Z,4.45
2023-01-10T02:23:42.004Z,4.32
2023-01-10T02:24:13.395Z,3.95
2023-01-10T02:25:23.526Z,4.57
2023-01-10T02:26:10.043Z,4.70
2023-01-10T02:26:58.474Z,4.43
2023-01-10T02:27:50.118Z,4.50
2023-01-10T02:28:39.898Z,4.83
2023-01-10T02:29:11.278Z,4.65
2023-01-10T02:30:01.555Z,4.80
2023-01-10T02:30:51.851Z,4.30
2023-01-10T02:31:55.369Z,5.68
2023-01-10T02:32:42.161Z,4.18
2023-01-10T02:33:37.756Z,4.82
2023-01-10T02:34:27.646Z,4.72
2023-01-10T02:35:08.051Z,4.05
2023-01-10T02:35:39.376Z,4.20
2023-01-10T02:36:17.484Z,4.35
2023-01-10T02:36:48.815Z,4.75
2023-01-10T02:37:29.106Z,4.82
2023-01-10T02:38:20.768Z,4.20
2023-01-10T02:38:52.154Z,4.33
2023-01-10T02:39:35.464Z,4.13
2023-01-10T02:40:25.537Z,4.97
2023-01-10T02:41:13.618Z,5.03
2023-01-10T02:41:48.023Z,4.65
2023-01-10T02:42:22.954Z,4.50
2023-01-10T02:42:57.095Z,4.30
2023-01-10T02:43:34.780Z,4.25
2023-01-10T02:44:18.318Z,4.40
2023-01-10T02:45:09.855Z,4.70
2023-01-10T02:45:50.260Z,4.28
2023-01-10T02:46:25.054Z,4.43
2023-01-10T02:46:56.716Z,4.20
2023-01-10T02:47:34.698Z,3.58
2023-01-10T02:48:06.204Z,5.15
2023-01-10T02:48:37.684Z,4.57
2023-01-10T02:49:09.082Z,4.03
2023-01-10T02:49:44.345Z,4.85
2023-01-10T02:50:27.810Z,4.90
2023-01-10T02:51:12.680Z,4.38
2023-01-10T02:51:44.110Z,4.03
2023-01-10T02:52:23.686Z,4.05
2023-01-10T02:52:57.217Z,5.07
2023-01-10T02:53:40.703Z,4.57
2023-01-10T02:54:15.311Z,4.28
2023-01-10T02:54:47.289Z,4.28
2023-01-10T02:55:19.656Z,4.88
2023-01-10T02:56:05.961Z,4.07
2023-01-10T02:56:46.134Z,4.75
2023-01-10T02:57:29.845Z,4.13
2023-01-10T02:58:04.007Z,4.47
2023-01-10T02:58:38.254Z,4.40
2023-01-10T02:59:17.588Z,4.28
2023-01-10T02:59:51.755Z,4.32
2023-01-10T03:00:35.259Z,4.68
2023-01-10T03:01:27.027Z,4.97
2023-01-10T03:02:01.430Z,4.25
2023-01-10T03:02:38.703Z,4.43
2023-01-10T03:03:15.839Z,4.13
2023-01-10T03:03:52.600Z,4.25
2023-01-10T03:04:39.048Z,4.30
2023-01-10T03:05:13.439Z,4.45
2023-01-10T03:05:50.758Z,4.80
2023-01-10T03:06:28.293Z,4.95
2023-01-10T03:06:59.697Z,4.97
2023-01-10T03:07:37.356Z,4.07
2023-01-10T03:08:18.540Z,4.15
2023-01-10T03:08:51.851Z,4.40
2023-01-10T03:09:34.505Z,4.75
2023-01-10T03:10:29.354Z,4.75
2023-01-10T03:11:02.297Z,4.60
2023-01-10T03:11:35.859Z,4.35
2023-01-10T03:12:21.367Z,4.20
2023-01-10T03:12:58.436Z,4.15
2023-01-10T03:13:29.817Z,4.85
2023-01-10T03:14:01.587Z,4.88
2023-01-10T03:14:33.571Z,4.47
2023-01-10T03:15:06.246Z,5.00
2023-01-10T03:15:40.097Z,4.70
2023-01-10T03:16:13.829Z,5.00
2023-01-10T03:16:47.690Z,4.18
2023-01-10T03:17:19.781Z,4.18
2023-01-10T03:17:54.080Z,4.67
2023-01-10T03:18:33.502Z,4.80
2023-01-10T03:19:09.253Z,4.13
2023-01-10T03:19:43.439Z,3.97
2023-01-10T03:20:15.774Z,4.47
2023-01-10T03:20:47.997Z,4.05
2023-01-10T03:21:20.262Z,4.85
2023-01-10T03:21:54.004Z,4.80
2023-01-10T03:22:26.310Z,4.43
2023-01-10T03:22:58.868Z,5.18
2023-01-10T03:23:32.406Z,4.65
2023-01-10T03:24:06.433Z,3.85
2023-01-10T03:24:42.361Z,4.88
2023-01-10T03:25:14.876Z,3.80
2023-01-10T03:25:47.582Z,5.05
2023-01-10T03:26:20.863Z,4.75
2023-01-10T03:27:03.088Z,4.32
2023-01-10T03:27:37.725Z,4.28
2023-01-10T03:28:11.911Z,4.85
2023-01-10T03:28:51.049Z,4.60
2023-01-10T03:29:26.003Z,3.85
2023-01-10T03:30:13.018Z,4.07
2023-01-10T03:30:44.393Z,4.07
2023-01-10T03:31:26.591Z,3.88
2023-01-10T03:32:01.496Z,5.00
2023-01-10T03:32:33.073Z,4.00
2023-01-10T03:33:05.193Z,4.60
2023-01-10T03:33:37.111Z,4.13
2023-01-10T03:34:08.738Z,4.50
2023-01-10T03:34:40.583Z,4.03
2023-01-10T03:35:12.652Z,4.30
2023-01-10T03:35:50.606Z,4.38
2023-01-10T03:36:39.737Z,3.97
2023-01-10T03:37:11.107Z,4.28
2023-01-10T03:37:42.544Z,3.97
2023-01-10T03:38:20.132Z,3.80
2023-01-10T03:39:02.474Z,3.58
2023-01-10T03:39:40.011Z,3.88
2023-01-10T03:40:16.597Z,3.92
2023-01-10T03:40:53.493Z,4.27
2023-01-10T03:41:24.912Z,4.40
2023-01-10T03:41:59.110Z,3.95
2023-01-10T03:42:30.507Z,4.35
2023-01-10T03:43:01.888Z,4.70
2023-01-10T03:43:36.297Z,4.50
2023-01-10T03:44:33.896Z,4.80
2023-01-10T03:45:08.902Z,4.05
2023-01-10T03:45:42.620Z,3.58
2023-01-10T03:46:20.365Z,4.03
2023-01-10T03:46:53.704Z,3.67
2023-01-10T03:47:33.811Z,4.00
2023-01-10T03:48:07.109Z,4.13
2023-01-10T03:48:42.011Z,4.38
2023-01-10T03:49:15.048Z,4.22
2023-01-10T03:49:48.430Z,3.80
2023-01-10T03:50:23.801Z,3.55
2023-01-10T03:50:56.247Z,3.55
2023-01-10T03:51:28.122Z,4.30
2023-01-10T03:52:00.572Z,4.15
2023-01-10T03:52:34.324Z,3.42
2023-01-10T03:53:05.972Z,3.97
2023-01-10T03:53:38.152Z,4.00
2023-01-10T03:54:09.595Z,4.32
2023-01-10T03:54:42.223Z,4.05
2023-01-10T03:55:14.882Z,4.35
2023-01-10T03:55:46.321Z,4.60
2023-01-10T03:56:17.755Z,3.70
2023-01-10T03:56:50.613Z,3.85
2023-01-10T03:57:23.292Z,4.45
2023-01-10T03:57:54.832Z,3.65
2023-01-10T03:58:26.943Z,3.75
2023-01-10T03:58:58.622Z,3.97
2023-01-10T03:59:30.058Z,4.07
2023-01-10T04:00:01.514Z,3.60
2023-01-10T04:00:33.245Z,4.90
2023-01-10T04:01:04.789Z,3.75
2023-01-10T04:01:36.293Z,4.35
2023-01-10T04:02:08.003Z,4.15
2023-01-10T04:02:39.606Z,3.65
2023-01-10T04:03:11.004Z,3.78
2023-01-10T04:03:42.491Z,4.20
2023-01-10T04:04:14.056Z,4.50
2023-01-10T04:04:45.674Z,3.67
2023-01-10T04:05:17.157Z,4.78
2023-01-10T04:05:48.546Z,3.70
2023-01-10T04:06:19.936Z,5.28
2023-01-10T04:06:51.359Z,4.45
2023-01-10T04:07:22.898Z,3.83
2023-01-10T04:07:54.401Z,4.60
2023-01-10T04:08:25.786Z,4.15
2023-01-10T04:08:57.208Z,4.38
2023-01-10T04:09:28.651Z,4.17
2023-01-10T04:10:00.136Z,4.05
2023-01-10T04:10:31.571Z,4.13
2023-01-10T04:11:02.959Z,3.65
2023-01-10T04:11:34.451Z,4.05
2023-01-10T04:12:05.882Z,4.13
2023-01-10T04:12:37.268Z,4.13
2023-01-10T04:13:08.726Z,3.97
2023-01-10T04:13:40.145Z,3.72
2023-01-10T04:14:11.537Z,3.67
2023-01-10T04:14:42.972Z,3.88
2023-01-10T04:15:14.461Z,3.65
2023-01-10T04:15:45.863Z,4.25
2023-01-10T04:16:17.384Z,5.05
2023-01-10T04:16:48.821Z,4.38
2023-01-10T04:17:20.262Z,3.55
2023-01-10T04:17:51.747Z,4.30
2023-01-10T04:18:23.139Z,4.43
2023-01-10T04:18:54.583Z,3.95
2023-01-10T04:19:26.169Z,3.72
2023-01-10T04:19:57.594Z,4.10
2023-01-10T04:20:28.990Z,3.60
2023-01-10T04:21:00.419Z,4.53
2023-01-10T04:21:31.809Z,4.50
2023-01-10T04:22:03.252Z,4.47
2023-01-10T04:22:34.744Z,4.15
2023-01-10T04:23:06.173Z,3.78
2023-01-10T04:23:37.626Z,3.55
2023-01-10T04:24:09.096Z,3.88
2023-01-10T04:24:41.004Z,3.85
2023-01-10T04:25:12.437Z,3.77
2023-01-10T04:25:46.587Z,4.15
2023-01-10T04:26:18.026Z,4.15
2023-01-10T04:26:49.607Z,3.75
2023-01-10T04:27:21.055Z,4.70
2023-01-10T04:27:52.548Z,4.55
2023-01-10T04:28:24.757Z,3.30
2023-01-10T04:28:56.230Z,3.65
2023-01-10T04:29:27.818Z,3.80
2023-01-10T04:29:59.210Z,4.13
2023-01-10T04:30:30.600Z,3.80
2023-01-10T04:31:02.086Z,4.15
2023-01-10T04:31:33.691Z,4.25
2023-01-10T04:32:05.225Z,4.05
2023-01-10T04:32:36.656Z,3.78
2023-01-10T04:33:08.137Z,3.88
2023-01-10T04:33:39.633Z,4.78
2023-01-10T04:34:11.067Z,4.53
2023-01-10T04:34:42.499Z,4.03
2023-01-10T04:35:13.984Z,4.38
2023-01-10T04:35:49.171Z,3.42
2023-01-10T04:36:20.605Z,3.40
2023-01-10T04:36:52.097Z,3.92
2023-01-10T04:37:25.013Z,4.07
2023-01-10T04:37:56.463Z,4.13
2023-01-10T04:38:27.897Z,4.07
2023-01-10T04:38:59.343Z,4.10
2023-01-10T04:39:30.813Z,3.63
2023-01-10T04:40:02.248Z,4.03
2023-01-10T04:40:33.641Z,3.25
2023-01-10T04:41:05.177Z,3.60
2023-01-10T04:41:36.627Z,3.88
2023-01-10T04:42:08.052Z,3.75
2023-01-10T04:42:39.435Z,3.72
2023-01-10T04:43:11.137Z,4.05
2023-01-10T04:43:42.569Z,4.25
2023-01-10T04:44:14.005Z,4.07
2023-01-10T04:44:45.389Z,3.92
2023-01-10T04:45:16.831Z,3.88
2023-01-10T04:45:48.287Z,3.83
2023-01-10T04:46:19.727Z,4.25
2023-01-10T04:46:51.141Z,4.07
2023-01-10T04:47:22.633Z,4.72
2023-01-10T04:47:54.061Z,3.42
2023-01-10T04:48:25.503Z,3.90
2023-01-10T04:48:57.041Z,3.58
2023-01-10T04:49:28.441Z,3.78
2023-01-10T04:49:59.827Z,4.30
2023-01-10T04:50:31.303Z,4.00
2023-01-10T04:51:02.739Z,4.40
2023-01-10T04:51:34.178Z,3.65
2023-01-10T04:52:05.562Z,3.80
2023-01-10T04:52:37.000Z,4.30
2023-01-10T04:53:08.396Z,3.92
2023-01-10T04:53:39.831Z,4.20
2023-01-10T04:54:11.289Z,4.85
2023-01-10T04:54:42.750Z,26.65
2023-01-10T04:55:14.188Z,30.92
2023-01-10T04:55:45.796Z,19.85
2023-01-10T04:56:18.182Z,12.63
2023-01-10T04:56:49.733Z,6.07
2023-01-10T04:57:21.165Z,4.07
2023-01-10T04:57:52.609Z,3.83
2023-01-10T04:58:24.040Z,3.80
2023-01-10T04:58:56.257Z,4.32
2023-01-10T04:59:27.699Z,5.72
2023-01-10T04:59:59.179Z,4.57
2023-01-10T05:00:30.565Z,4.13
2023-01-10T05:01:12.267Z,4.53
2023-01-10T05:01:44.017Z,3.65
2023-01-10T05:02:16.007Z,3.90
2023-01-10T05:02:47.688Z,3.92
2023-01-10T05:03:19.106Z,4.22
2023-01-10T05:03:51.216Z,3.47
2023-01-10T05:04:22.652Z,3.20
2023-01-10T05:04:54.037Z,3.38
2023-01-10T05:05:25.483Z,4.80
2023-01-10T05:05:58.289Z,3.40
2023-01-10T05:06:29.733Z,4.03
2023-01-10T05:07:01.119Z,3.63
2023-01-10T05:07:32.555Z,3.45
2023-01-10T05:08:04.048Z,3.17
2023-01-10T05:08:35.686Z,3.78
2023-01-10T05:09:07.893Z,3.97
2023-01-10T05:09:39.285Z,3.40
2023-01-10T05:10:11.124Z,4.25
2023-01-10T05:10:42.560Z,4.00
2023-01-10T05:11:14.155Z,4.15
2023-01-10T05:11:45.595Z,3.67
2023-01-10T05:12:17.044Z,3.97
2023-01-10T05:12:48.467Z,3.47
2023-01-10T05:13:19.840Z,3.70
2023-01-10T05:13:51.248Z,3.30
2023-01-10T05:14:22.621Z,3.60
2023-01-10T05:14:54.024Z,4.15
2023-01-10T05:15:25.515Z,3.60
2023-01-10T05:15:57.664Z,3.83
2023-01-10T05:16:29.263Z,3.40
2023-01-10T05:17:00.672Z,3.90
2023-01-10T05:17:32.214Z,3.73
2023-01-10T05:18:03.669Z,3.67
2023-01-10T05:18:35.050Z,3.53
2023-01-10T05:19:06.476Z,3.53
2023-01-10T05:19:37.918Z,3.70
2023-01-10T05:20:09.612Z,3.78
2023-01-10T05:20:41.049Z,4.10
2023-01-10T05:21:13.414Z,4.07
2023-01-10T05:21:44.889Z,3.50
2023-01-10T05:22:16.378Z,3.75
2023-01-10T05:22:47.783Z,3.50
2023-01-10T05:23:19.474Z,3.53
2023-01-10T05:23:50.950Z,4.13
2023-01-10T05:24:22.710Z,4.13
2023-01-10T05:24:54.752Z,3.83
2023-01-10T05:25:26.234Z,3.70
2023-01-10T05:25:57.842Z,4.07
2023-01-10T05:26:29.314Z,3.60
2023-01-10T05:27:00.748Z,4.07
2023-01-10T05:27:32.140Z,4.28
2023-01-10T05:28:03.639Z,3.85
2023-01-10T05:28:35.171Z,3.88
2023-01-10T05:29:06.612Z,4.50
2023-01-10T05:29:37.943Z,3.83
2023-01-10T05:30:10.810Z,4.00
2023-01-10T05:30:42.205Z,3.63
2023-01-10T05:31:14.636Z,3.97
2023-01-10T05:31:46.192Z,4.05
2023-01-10T05:32:17.634Z,4.13
2023-01-10T05:32:49.066Z,3.25
2023-01-10T05:33:20.455Z,3.72
2023-01-10T05:33:52.063Z,3.67
2023-01-10T05:34:23.540Z,3.90
2023-01-10T05:34:54.915Z,4.05
2023-01-10T05:35:26.338Z,3.38
2023-01-10T05:35:57.741Z,4.20
2023-01-10T05:36:29.136Z,3.80
2023-01-10T05:37:00.624Z,3.55
2023-01-10T05:37:32.053Z,3.75
2023-01-10T05:38:03.707Z,3.70
2023-01-10T05:38:35.135Z,3.78
2023-01-10T05:39:06.752Z,4.15
2023-01-10T05:39:38.181Z,3.90
2023-01-10T05:40:09.837Z,4.05
2023-01-10T05:40:41.237Z,3.50
2023-01-10T05:41:12.629Z,3.45
2023-01-10T05:41:44.013Z,3.92
2023-01-10T05:42:15.408Z,4.22
2023-01-10T05:42:46.787Z,3.85
2023-01-10T05:43:18.176Z,4.10
2023-01-10T05:43:49.774Z,3.88
2023-01-10T05:44:21.253Z,4.28
2023-01-10T05:44:52.639Z,4.30
2023-01-10T05:45:23.983Z,3.50
2023-01-10T05:45:55.608Z,3.70
2023-01-10T05:46:27.042Z,4.50
2023-01-10T05:46:58.400Z,4.07
2023-01-10T05:47:29.783Z,3.97
2023-01-10T05:48:01.268Z,4.07
2023-01-10T05:48:32.650Z,3.22
2023-01-10T05:49:04.135Z,3.45
2023-01-10T05:49:35.545Z,4.35
2023-01-10T05:50:07.227Z,3.60
2023-01-10T05:50:38.680Z,4.03
2023-01-10T05:51:10.101Z,3.47
2023-01-10T05:51:41.483Z,3.50
2023-01-10T05:52:12.819Z,3.00
2023-01-10T05:52:44.193Z,3.53
2023-01-10T05:53:15.645Z,3.75
2023-01-10T05:53:48.057Z,3.38
2023-01-10T05:54:20.034Z,3.60
2023-01-10T05:54:51.429Z,3.72
2023-01-10T05:55:22.907Z,4.03
2023-01-10T05:55:57.855Z,3.80
2023-01-10T05:56:29.337Z,3.35
2023-01-10T05:57:00.739Z,4.15
2023-01-10T05:57:32.099Z,4.10
2023-01-10T05:58:03.970Z,3.95
2023-01-10T05:58:35.383Z,3.90
2023-01-10T05:59:16.978Z,3.92
2023-01-10T05:59:58.233Z,3.45
2023-01-10T06:00:29.678Z,3.05
2023-01-10T06:01:01.088Z,4.17
2023-01-10T06:01:32.565Z,3.50
2023-01-10T06:02:03.926Z,3.72
2023-01-10T06:02:35.413Z,3.22
2023-01-10T06:03:06.916Z,3.92
2023-01-10T06:03:38.340Z,3.60
2023-01-10T06:04:09.794Z,3.35
2023-01-10T06:04:41.217Z,3.35
2023-01-10T06:05:12.609Z,4.63
2023-01-10T06:05:44.047Z,4.13
2023-01-10T06:06:15.431Z,3.88
2023-01-10T06:06:46.865Z,3.78
2023-01-10T06:07:18.350Z,3.92
2023-01-10T06:07:49.793Z,4.03
2023-01-10T06:08:21.225Z,3.97
2023-01-10T06:08:52.605Z,3.38
2023-01-10T06:09:23.935Z,3.97
2023-01-10T06:09:55.331Z,3.53
2023-01-10T06:10:27.224Z,3.53
2023-01-10T06:10:58.831Z,3.30
2023-01-10T06:11:30.259Z,3.70
2023-01-10T06:12:01.647Z,3.58
2023-01-10T06:12:33.131Z,3.50
2023-01-10T06:13:04.607Z,3.33
2023-01-10T06:13:36.061Z,4.30
2023-01-10T06:14:07.450Z,4.82
2023-01-10T06:14:38.883Z,3.85
2023-01-10T06:15:10.928Z,3.80
2023-01-10T06:15:42.885Z,3.78
2023-01-10T06:16:14.378Z,3.83
2023-01-10T06:16:46.271Z,3.72
2023-01-10T06:17:17.680Z,3.78
2023-01-10T06:17:49.045Z,3.47
2023-01-10T06:18:20.489Z,3.63
2023-01-10T06:18:51.917Z,3.37
2023-01-10T06:19:23.302Z,4.05
2023-01-10T06:19:54.691Z,3.45
2023-01-10T06:20:26.125Z,3.75
2023-01-10T06:20:57.571Z,3.38
2023-01-10T06:21:28.986Z,3.35
2023-01-10T06:22:00.445Z,4.15
2023-01-10T06:22:31.904Z,4.38
2023-01-10T06:23:03.307Z,4.15
2023-01-10T06:23:34.704Z,4.28
2023-01-10T06:24:06.333Z,3.40
2023-01-10T06:24:37.740Z,3.80
2023-01-10T06:25:09.982Z,4.13
2023-01-10T06:25:41.567Z,3.70
2023-01-10T06:26:13.026Z,3.30
2023-01-10T06:26:44.498Z,3.65
2023-01-10T06:27:15.896Z,3.90
2023-01-10T06:27:47.268Z,4.70
2023-01-10T06:28:18.659Z,4.72
2023-01-10T06:28:50.037Z,4.18
2023-01-10T06:29:21.444Z,3.50
2023-01-10T06:29:52.911Z,3.60
2023-01-10T06:30:24.298Z,3.97
2023-01-10T06:30:55.699Z,4.07
2023-01-10T06:31:27.603Z,3.53
2023-01-10T06:31:59.107Z,3.28
2023-01-10T06:32:30.565Z,3.70
2023-01-10T06:33:02.782Z,4.37
2023-01-10T06:33:34.631Z,4.20
2023-01-10T06:34:06.209Z,3.47
2023-01-10T06:34:37.591Z,3.67
2023-01-10T06:35:09.494Z,4.20
2023-01-10T06:35:40.992Z,3.83
2023-01-10T06:36:12.462Z,3.40
2023-01-10T06:36:43.910Z,3.47
2023-01-10T06:37:15.292Z,3.38
2023-01-10T06:37:46.872Z,3.22
2023-01-10T06:38:18.317Z,4.03
2023-01-10T06:38:49.712Z,3.67
2023-01-10T06:39:21.153Z,3.50
2023-01-10T06:39:52.591Z,3.95
2023-01-10T06:40:24.021Z,3.90
2023-01-10T06:40:55.457Z,3.77
2023-01-10T06:41:26.842Z,3.22
2023-01-10T06:41:58.329Z,3.70
2023-01-10T06:42:29.865Z,3.90
2023-01-10T06:43:01.329Z,4.20
2023-01-10T06:43:32.745Z,4.00
2023-01-10T06:44:04.148Z,4.10
2023-01-10T06:44:35.561Z,4.13
2023-01-10T06:45:07.216Z,4.18
2023-01-10T06:45:38.687Z,4.30
2023-01-10T06:46:10.293Z,4.25
2023-01-10T06:46:41.788Z,3.33
2023-01-10T06:47:13.339Z,4.70
2023-01-10T06:47:44.874Z,3.80
2023-01-10T06:48:16.364Z,4.15
2023-01-10T06:48:48.070Z,3.42
2023-01-10T06:49:19.503Z,3.70
2023-01-10T06:49:50.924Z,3.75
2023-01-10T06:50:22.681Z,4.07
2023-01-10T06:50:54.094Z,3.78
2023-01-10T06:51:25.544Z,3.40
2023-01-10T06:51:56.971Z,4.20
2023-01-10T06:52:28.415Z,4.10
2023-01-10T06:53:00.977Z,4.38
2023-01-10T06:53:32.390Z,4.15
2023-01-10T06:54:03.922Z,4.10
2023-01-10T06:54:35.488Z,5.05
2023-01-10T06:55:07.241Z,4.10
2023-01-10T06:55:38.726Z,4.65
2023-01-10T06:56:10.272Z,4.15
2023-01-10T06:56:41.693Z,4.22
2023-01-10T06:57:13.098Z,3.83
2023-01-10T06:57:44.522Z,3.63
2023-01-10T06:58:15.960Z,3.78
2023-01-10T06:58:48.276Z,4.15
2023-01-10T06:59:19.716Z,3.63
2023-01-10T06:59:51.194Z,4.15
2023-01-10T07:00:22.779Z,4.20
2023-01-10T07:00:54.337Z,3.78
2023-01-10T07:01:25.895Z,4.05
2023-01-10T07:01:57.506Z,4.18
2023-01-10T07:02:29.110Z,5.30
2023-01-10T07:03:01.508Z,4.63
2023-01-10T07:03:32.945Z,4.53
2023-01-10T07:04:04.560Z,4.72
2023-01-10T07:04:35.965Z,4.70
2023-01-10T07:05:08.874Z,4.88
2023-01-10T07:05:42.171Z,4.97
2023-01-10T07:06:14.020Z,4.05
2023-01-10T07:06:45.410Z,3.90
2023-01-10T07:07:16.844Z,4.97
2023-01-10T07:07:48.337Z,4.60
2023-01-10T07:08:19.721Z,5.05
2023-01-10T07:08:51.123Z,4.55
2023-01-10T07:09:22.542Z,5.15
2023-01-10T07:09:54.022Z,4.70
2023-01-10T07:10:25.416Z,5.05
2023-01-10T07:10:57.854Z,4.43
2023-01-10T07:11:29.272Z,4.78
2023-01-10T07:12:00.647Z,4.32
2023-01-10T07:12:32.027Z,5.00
2023-01-10T07:13:03.423Z,4.88
2023-01-10T07:13:35.015Z,5.05
2023-01-10T07:14:06.451Z,4.57
2023-01-10T07:14:37.832Z,5.10
2023-01-10T07:15:09.386Z,6.60
2023-01-10T07:15:40.769Z,5.65
2023-01-10T07:16:13.445Z,5.88
2023-01-10T07:16:44.913Z,6.88
2023-01-10T07:17:16.310Z,7.03
2023-01-10T07:17:47.771Z,7.60
2023-01-10T07:18:19.196Z,6.20
2023-01-10T07:18:50.637Z,5.67
2023-01-10T07:19:22.062Z,4.93
2023-01-10T07:19:53.573Z,5.80